.
WxDataArchive / Data Records for 2013-04-10
2013-04-09 April 2013 2013-04-11

Data Records for Wednesday, 10 April 2013

Time	Temp	Chill	HIndex	Humid	Dewpt	 Wind 	HiWind	WindDir	Rain 	Barom 
-----	----	-----	------	-----	-----	------	------	-------	-----	----- 
00:00	69.9	69.9	69.9	66	58.0	0	1	248	0.00	29.867 
00:05	69.8	69.8	69.8	66	57.9	0	0	---	0.00	29.867 
00:10	69.6	69.6	69.6	67	58.1	0	0	---	0.00	29.867 
00:15	69.3	69.3	69.3	67	57.9	0	0	---	0.00	29.863 
00:20	69.1	69.1	69.1	68	58.1	0	0	---	0.00	29.863 
00:25	68.8	68.8	68.8	69	58.2	0	0	---	0.00	29.863 
00:30	68.6	68.6	68.6	69	58.0	0	0	---	0.00	29.869 
00:35	68.4	68.4	68.4	70	58.2	0	0	---	0.00	29.869 
00:40	68.3	68.3	68.3	71	58.5	0	0	---	0.00	29.869 
00:45	67.9	67.9	67.9	71	58.1	0	0	---	0.00	29.874 
00:50	67.8	67.8	67.8	71	58.0	0	0	---	0.00	29.874 
00:55	67.6	67.6	67.6	72	58.2	0	0	---	0.00	29.874 
01:00	67.4	67.4	67.4	72	58.1	0	0	---	0.00	29.879 
01:05	67.3	67.3	67.3	73	58.3	0	0	---	0.00	29.879 
01:10	66.9	66.9	66.9	74	58.3	0	0	---	0.00	29.879 
01:15	66.8	66.8	66.8	75	58.6	0	0	---	0.00	29.875 
01:20	66.6	66.6	66.6	75	58.4	0	0	---	0.00	29.875 
01:25	66.4	66.4	66.4	75	58.2	0	0	---	0.00	29.875 
01:30	66.4	66.4	66.4	75	58.2	0	0	---	0.00	29.878 
01:35	66.3	66.3	66.3	76	58.5	0	0	---	0.00	29.878 
01:40	66.3	66.3	66.3	77	58.9	0	1	248	0.00	29.878 
01:45	66.3	66.3	66.3	77	58.9	0	1	248	0.00	29.875 
01:50	66.1	66.1	66.1	78	59.0	0	1	248	0.00	29.875 
01:55	66.1	66.1	66.1	78	59.0	0	0	---	0.00	29.875 
02:00	66.0	66.0	66.0	78	58.9	0	1	248	0.00	29.875 
02:05	66.0	66.0	66.0	79	59.3	0	1	248	0.00	29.875 
02:10	65.6	65.6	65.6	80	59.3	0	1	248	0.00	29.875 
02:15	65.5	65.5	65.5	80	59.2	0	5	248	0.00	29.871 
02:20	62.6	62.6	62.6	70	52.7	2	6	90	0.00	29.871 
02:25	59.3	59.3	59.3	72	50.3	4	9	90	0.00	29.871 
02:30	56.7	56.7	56.7	76	49.2	3	9	112	0.00	29.880 
02:35	55.4	55.4	55.4	78	48.7	2	7	90	0.00	29.880 
02:40	54.7	54.7	54.7	80	48.7	4	10	90	0.00	29.880 
02:45	54.1	54.1	54.1	81	48.4	2	9	90	0.00	29.883 
02:50	53.8	53.8	53.8	82	48.4	2	5	112	0.00	29.883 
02:55	53.6	53.6	53.6	82	48.2	1	6	112	0.00	29.883 
03:00	53.3	53.3	53.3	83	48.3	2	6	90	0.00	29.882 
03:05	53.2	53.2	53.2	83	48.2	1	5	112	0.00	29.882 
03:10	53.1	53.1	53.1	84	48.4	3	9	90	0.00	29.882 
03:15	52.8	52.8	52.8	85	48.4	2	6	112	0.00	29.883 
03:20	52.5	52.5	52.5	86	48.4	3	7	112	0.00	29.883 
03:25	52.3	52.3	52.3	86	48.2	2	7	112	0.00	29.883 
03:30	52.3	52.3	52.3	86	48.2	1	5	112	0.00	29.874 
03:35	52.2	52.2	52.2	87	48.4	2	6	112	0.00	29.874 
03:40	52.2	52.2	52.2	87	48.4	2	8	112	0.00	29.874 
03:45	52.0	52.0	52.0	87	48.3	1	4	112	0.00	29.868 
03:50	51.9	51.9	51.9	87	48.2	1	6	112	0.00	29.868 
03:55	51.7	51.7	51.7	87	48.0	3	9	112	0.00	29.868 
04:00	51.7	51.7	51.7	87	48.0	2	6	22	0.00	29.870 
04:05	51.7	51.7	51.7	87	48.0	2	7	90	0.00	29.870 
04:10	51.6	51.6	51.6	87	47.9	2	9	112	0.00	29.870 
04:15	51.4	51.4	51.4	87	47.7	2	6	112	0.00	29.874 
04:20	51.3	51.3	51.3	87	47.6	2	7	112	0.00	29.874 
04:25	51.3	51.3	51.3	87	47.6	3	9	112	0.00	29.874 
04:30	51.3	51.3	51.3	87	47.6	3	6	90	0.00	29.870 
04:35	51.1	51.1	51.1	87	47.4	3	7	112	0.00	29.870 
04:40	51.0	51.0	51.0	87	47.3	3	7	112	0.00	29.870 
04:45	51.0	51.0	51.0	87	47.3	4	8	90	0.00	29.868 
04:50	51.0	51.0	51.0	87	47.3	4	9	90	0.00	29.868 
04:55	50.8	50.8	50.8	87	47.1	4	7	90	0.00	29.868 
05:00	50.8	50.8	50.8	87	47.1	2	5	112	0.00	29.866 
05:05	50.8	50.8	50.8	87	47.1	3	7	112	0.00	29.866 
05:10	50.8	50.8	50.8	87	47.1	3	6	112	0.00	29.866 
05:15	50.8	50.8	50.8	87	47.1	3	5	90	0.00	29.868 
05:20	50.8	50.8	50.8	87	47.1	2	4	90	0.00	29.868 
05:25	51.0	51.0	51.0	88	47.6	1	3	90	0.00	29.868 
05:30	51.0	51.0	51.0	88	47.6	2	5	90	0.00	29.869 
05:35	51.0	51.0	51.0	88	47.6	2	6	90	0.00	29.869 
05:40	51.0	51.0	51.0	88	47.6	2	6	90	0.00	29.869 
05:45	51.0	51.0	51.0	88	47.6	3	6	90	0.00	29.866 
05:50	50.8	50.8	50.8	88	47.4	3	5	112	0.00	29.866 
05:55	50.8	50.8	50.8	88	47.4	2	5	90	0.00	29.866 
06:00	50.8	50.8	50.8	88	47.4	3	6	90	0.00	29.858 
06:05	50.8	50.8	50.8	88	47.4	2	5	90	0.00	29.858 
06:10	50.8	50.8	50.8	89	47.7	3	5	90	0.00	29.858 
06:15	50.8	50.8	50.8	89	47.7	2	5	90	0.00	29.857 
06:20	50.8	50.8	50.8	89	47.7	3	7	90	0.01	29.857 
06:25	50.7	50.7	50.7	90	47.9	2	5	90	0.00	29.857 
06:30	50.7	50.7	50.7	90	47.9	1	5	112	0.00	29.851 
06:35	50.5	50.5	50.5	91	48.0	3	7	90	0.00	29.851 
06:40	50.2	50.2	50.2	91	47.7	2	8	90	0.00	29.851 
06:45	50.1	50.1	50.1	91	47.6	3	10	90	0.00	29.848 
06:50	49.9	49.9	49.9	91	47.4	3	6	112	0.00	29.848 
06:55	49.9	49.9	49.9	91	47.4	2	5	90	0.00	29.848 
07:00	49.9	49.9	49.9	91	47.4	1	4	90	0.00	29.849 
07:05	49.9	49.9	49.9	91	47.4	2	6	90	0.00	29.849 
07:10	49.9	49.9	49.9	92	47.7	2	4	68	0.00	29.849 
07:15	49.8	49.8	49.8	92	47.6	3	6	90	0.00	29.839 
07:20	49.8	49.8	49.8	92	47.6	2	4	112	0.00	29.839 
07:25	49.8	49.8	49.8	92	47.6	2	4	90	0.00	29.839 
07:30	49.8	49.8	49.8	92	47.6	2	4	90	0.00	29.845 
07:35	49.8	49.8	49.8	92	47.6	1	4	112	0.01	29.845 
07:40	49.8	49.8	49.8	92	47.6	3	5	112	0.00	29.845 
07:45	49.6	49.6	49.6	92	47.4	3	6	90	0.00	29.844 
07:50	49.6	49.6	49.6	92	47.4	3	6	90	0.00	29.844 
07:55	49.6	49.6	49.6	92	47.4	3	9	90	0.00	29.844 
08:00	49.6	49.6	49.6	92	47.4	2	7	90	0.00	29.841 
08:05	49.6	49.6	49.6	92	47.4	3	6	90	0.00	29.841 
08:10	49.8	49.8	49.8	92	47.6	3	6	90	0.00	29.841 
08:15	49.8	49.8	49.8	92	47.6	2	5	90	0.00	29.839 
08:20	49.8	49.8	49.8	92	47.6	3	6	90	0.00	29.839 
08:25	49.8	49.8	49.8	92	47.6	3	8	90	0.00	29.839 
08:30	49.8	49.8	49.8	92	47.6	3	6	90	0.00	29.840 
08:35	49.8	49.8	49.8	92	47.6	2	4	90	0.00	29.840 
08:40	49.9	49.9	49.9	92	47.7	1	3	90	0.00	29.840 
08:45	50.1	50.1	50.1	92	47.9	2	5	112	0.00	29.833 
08:50	50.1	50.1	50.1	92	47.9	2	4	112	0.00	29.833 
08:55	50.2	50.2	50.2	92	48.0	2	4	112	0.00	29.833 
09:00	50.4	50.4	50.4	92	48.2	2	6	68	0.00	29.842 
09:05	50.4	50.4	50.4	92	48.2	2	5	90	0.00	29.842 
09:10	50.5	50.5	50.5	92	48.3	0	2	112	0.00	29.842 
09:15	50.5	50.5	50.5	92	48.3	0	3	112	0.00	29.846 
09:20	50.7	50.7	50.7	92	48.5	1	3	112	0.00	29.846 
09:25	50.8	50.8	50.8	92	48.6	1	2	112	0.00	29.846 
09:30	50.8	50.8	50.8	92	48.6	1	3	112	0.00	29.842 
09:35	51.0	51.0	51.0	92	48.8	1	3	112	0.00	29.842 
09:40	51.0	51.0	51.0	91	48.5	1	3	112	0.00	29.842 
09:45	50.8	50.8	50.8	91	48.3	1	3	135	0.00	29.851 
09:50	51.0	51.0	51.0	92	48.8	1	4	22	0.00	29.851 
09:55	51.0	51.0	51.0	91	48.5	1	6	45	0.00	29.851 
10:00	51.0	51.0	51.0	91	48.5	2	7	112	0.00	29.858 
10:05	51.0	51.0	51.0	91	48.5	1	4	112	0.00	29.858 
10:10	50.8	50.8	50.8	91	48.3	1	4	112	0.00	29.858 
10:15	50.8	50.8	50.8	91	48.3	1	4	68	0.01	29.857 
10:20	50.7	50.7	50.7	91	48.2	2	7	112	0.00	29.857 
10:25	50.5	50.5	50.5	91	48.0	2	6	90	0.00	29.857 
10:30	50.5	50.5	50.5	91	48.0	1	5	90	0.00	29.854 
10:35	50.5	50.5	50.5	92	48.3	2	5	90	0.00	29.854 
10:40	50.4	50.4	50.4	92	48.2	3	5	90	0.00	29.854 
10:45	50.2	50.2	50.2	92	48.0	3	6	90	0.00	29.853 
10:50	50.4	50.4	50.4	92	48.2	3	6	90	0.00	29.853 
10:55	50.4	50.4	50.4	92	48.2	3	6	112	0.00	29.853 
11:00	50.5	50.5	50.5	92	48.3	3	6	90	0.00	29.837 
11:05	50.8	50.8	50.8	92	48.6	3	6	90	0.00	29.837 
11:10	51.3	51.3	51.3	92	49.1	3	7	90	0.00	29.837 
11:15	52.0	52.0	52.0	93	50.0	2	5	112	0.00	29.838 
11:20	52.6	52.6	52.6	92	50.3	3	6	112	0.00	29.838 
11:25	53.2	53.2	53.2	92	50.9	2	5	112	0.00	29.838 
11:30	53.6	53.6	53.6	91	51.0	2	6	112	0.00	29.844 
11:35	53.9	53.9	53.9	91	51.3	2	7	90	0.00	29.844 
11:40	54.4	54.4	54.4	90	51.5	2	5	90	0.00	29.844 
11:45	54.4	54.4	54.4	89	51.2	2	6	112	0.00	29.847 
11:50	54.5	54.5	54.5	89	51.3	3	6	112	0.00	29.847 
11:55	54.7	54.7	54.7	89	51.5	4	7	112	0.00	29.847 
12:00	55.4	55.4	55.4	89	52.2	2	5	112	0.00	29.827 
12:05	55.9	55.9	55.9	88	52.4	3	7	112	0.00	29.827 
12:10	56.2	56.2	56.2	88	52.7	3	9	112	0.00	29.827 
12:15	56.3	56.3	56.3	86	52.2	3	7	112	0.00	29.832 
12:20	56.3	56.3	56.3	86	52.2	2	5	112	0.00	29.832 
12:25	56.5	56.5	56.5	86	52.4	1	4	112	0.00	29.832 
12:30	56.6	56.6	56.6	86	52.5	2	4	90	0.00	29.834 
12:35	56.7	56.7	56.7	86	52.6	1	4	90	0.00	29.834 
12:40	56.7	56.7	56.7	85	52.2	2	6	112	0.00	29.834 
12:45	56.9	56.9	56.9	86	52.8	0	2	45	0.00	29.846 
12:50	56.7	56.7	56.7	84	51.9	1	3	338	0.00	29.846 
12:55	56.3	56.3	56.3	84	51.5	1	4	0	0.00	29.846 
13:00	56.0	56.0	56.0	85	51.6	1	4	112	0.00	29.843 
13:05	55.9	55.9	55.9	85	51.5	1	3	112	0.01	29.843 
13:10	55.4	55.4	55.4	87	51.6	1	5	90	0.02	29.843 
13:15	55.0	55.0	55.0	87	51.2	1	4	90	0.00	29.835 
13:20	54.5	54.5	54.5	88	51.0	2	5	90	0.00	29.835 
13:25	54.2	54.2	54.2	89	51.0	1	6	90	0.00	29.835 
13:30	53.9	53.9	53.9	89	50.7	1	4	90	0.00	29.832 
13:35	53.6	53.6	53.6	90	50.7	0	2	90	0.00	29.832 
13:40	53.5	53.5	53.5	90	50.6	1	2	90	0.00	29.832 
13:45	53.2	53.2	53.2	90	50.3	2	4	112	0.00	29.832 
13:50	52.9	52.9	52.9	90	50.0	3	7	90	0.00	29.832 
13:55	52.6	52.6	52.6	91	50.0	2	5	112	0.00	29.832 
14:00	52.6	52.6	52.6	91	50.0	2	6	112	0.00	29.829 
14:05	52.3	52.3	52.3	90	49.5	3	6	112	0.00	29.829 
14:10	52.2	52.2	52.2	91	49.7	2	10	112	0.00	29.829 
14:15	51.9	51.9	51.9	91	49.4	2	5	90	0.00	29.858 
14:20	51.7	51.7	51.7	91	49.2	2	6	112	0.00	29.858 
14:25	51.6	51.6	51.6	91	49.1	1	4	22	0.00	29.858 
14:30	51.4	51.4	51.4	91	48.9	1	5	90	0.00	29.847 
14:35	51.3	51.3	51.3	91	48.8	1	4	68	0.00	29.847 
14:40	50.8	50.8	50.8	91	48.3	2	7	112	0.00	29.847 
14:45	50.7	50.7	50.7	91	48.2	3	5	90	0.00	29.826 
14:50	50.5	50.5	50.5	91	48.0	2	4	90	0.00	29.826 
14:55	50.4	50.4	50.4	91	47.9	1	3	112	0.00	29.826 
15:00	50.2	50.2	50.2	91	47.7	2	5	90	0.00	29.843 
15:05	50.2	50.2	50.2	91	47.7	1	2	90	0.00	29.843 
15:10	50.2	50.2	50.2	92	48.0	1	4	112	0.00	29.843 
15:15	50.2	50.2	50.2	92	48.0	1	5	112	0.00	29.849 
15:20	50.2	50.2	50.2	92	48.0	2	4	90	0.00	29.849 
15:25	50.1	50.1	50.1	92	47.9	2	5	90	0.00	29.849 
15:30	50.2	50.2	50.2	92	48.0	1	4	90	0.00	29.830 
15:35	50.2	50.2	50.2	92	48.0	1	3	90	0.00	29.830 
15:40	50.1	50.1	50.1	92	47.9	1	3	112	0.00	29.830 
15:45	50.4	50.4	50.4	92	48.2	0	2	112	0.00	29.829 
15:50	50.7	50.7	50.7	92	48.5	1	3	112	0.00	29.829 
15:55	51.0	51.0	51.0	92	48.8	1	3	112	0.00	29.829 
16:00	51.3	51.3	51.3	92	49.1	0	1	112	0.00	29.841 
16:05	51.6	51.6	51.6	92	49.4	0	1	112	0.00	29.841 
16:10	51.9	51.9	51.9	92	49.6	0	1	112	0.00	29.841 
16:15	52.0	52.0	52.0	91	49.5	0	3	45	0.00	29.845 
16:20	51.7	51.7	51.7	90	48.9	0	1	0	0.00	29.845 
16:25	51.6	51.6	51.6	90	48.8	0	2	0	0.00	29.845 
16:30	51.3	51.3	51.3	90	48.5	0	3	0	0.00	29.838 
16:35	51.0	51.0	51.0	90	48.2	0	2	0	0.00	29.838 
16:40	51.0	51.0	51.0	90	48.2	1	2	135	0.00	29.838 
16:45	50.7	50.7	50.7	90	47.9	1	4	0	0.00	29.874 
16:50	50.5	50.5	50.5	90	47.7	0	3	0	0.00	29.874 
16:55	50.4	50.4	50.4	91	47.9	1	5	0	0.01	29.874 
17:00	49.9	49.9	49.9	91	47.4	2	7	338	0.01	29.876 
17:05	49.5	49.5	49.5	91	47.0	2	6	338	0.02	29.876 
17:10	49.2	49.2	49.2	91	46.7	2	5	338	0.01	29.876 
17:15	48.9	48.9	48.9	92	46.7	1	4	338	0.02	29.898 
17:20	48.6	48.6	48.6	92	46.4	1	4	0	0.01	29.898 
17:25	48.5	48.5	48.5	92	46.3	1	4	338	0.01	29.898 
17:30	48.5	48.5	48.5	92	46.3	1	3	90	0.02	29.884 
17:35	48.3	48.3	48.3	92	46.1	1	4	90	0.01	29.884 
17:40	48.2	48.2	48.2	93	46.3	2	6	112	0.01	29.884 
17:45	48.0	48.0	48.0	93	46.1	2	5	112	0.01	29.856 
17:50	47.9	47.9	47.9	93	46.0	2	6	90	0.02	29.856 
17:55	47.7	46.2	47.7	93	45.8	4	12	90	0.01	29.856 
18:00	47.4	44.6	47.4	93	45.5	6	13	112	0.00	29.819 
18:05	47.3	44.5	47.3	94	45.7	6	13	90	0.00	29.819 
18:10	47.1	47.1	47.1	94	45.5	3	10	90	0.00	29.819 
18:15	47.1	45.5	47.1	94	45.5	4	15	112	0.00	29.841 
18:20	47.1	47.1	47.1	94	45.5	2	11	90	0.01	29.841 
18:25	47.1	47.1	47.1	94	45.5	1	4	90	0.00	29.841 
18:30	47.1	47.1	47.1	94	45.5	1	4	135	0.00	29.860 
18:35	47.1	47.1	47.1	94	45.5	1	3	45	0.00	29.860 
18:40	47.3	47.3	47.3	94	45.7	1	5	45	0.00	29.860 
18:45	47.3	47.3	47.3	94	45.7	1	5	90	0.00	29.847 
18:50	47.3	47.3	47.3	94	45.7	1	4	90	0.00	29.847 
18:55	47.3	47.3	47.3	94	45.7	1	5	338	0.00	29.847 
19:00	47.3	47.3	47.3	94	45.7	0	3	338	0.00	29.860 
19:05	47.4	47.4	47.4	94	45.8	1	3	315	0.00	29.860 
19:10	47.4	47.4	47.4	94	45.8	0	3	315	0.00	29.860 
19:15	47.4	47.4	47.4	94	45.8	0	2	315	0.00	29.898 
19:20	47.6	47.6	47.6	94	46.0	0	3	315	0.00	29.898 
19:25	47.6	47.6	47.6	94	46.0	0	3	68	0.00	29.898 
19:30	47.4	47.4	47.4	94	45.8	1	4	45	0.00	29.901 
19:35	47.4	47.4	47.4	94	45.8	0	3	68	0.00	29.901 
19:40	47.3	47.3	47.3	94	45.7	1	5	338	0.00	29.901 
19:45	47.0	47.0	47.0	94	45.4	2	4	90	0.00	29.908 
19:50	46.7	46.7	46.7	94	45.1	1	6	45	0.00	29.908 
19:55	46.5	46.5	46.5	94	44.9	1	7	112	0.00	29.908 
20:00	46.4	46.4	46.4	94	44.8	1	6	112	0.00	29.914 
20:05	46.2	46.2	46.2	94	44.6	1	5	112	0.00	29.914 
20:10	46.2	46.2	46.2	94	44.6	3	6	90	0.00	29.914 
20:15	46.1	46.1	46.1	94	44.5	2	7	90	0.01	29.913 
20:20	46.1	46.1	46.1	94	44.5	3	8	90	0.01	29.913 
20:25	46.0	46.0	46.0	94	44.4	3	9	112	0.01	29.913 
20:30	46.0	46.0	46.0	94	44.4	2	5	90	0.01	29.910 
20:35	45.8	45.8	45.8	94	44.2	1	5	112	0.01	29.910 
20:40	45.8	45.8	45.8	94	44.2	3	8	112	0.01	29.910 
20:45	45.8	45.8	45.8	94	44.2	3	7	112	0.00	29.900 
20:50	45.7	45.7	45.7	94	44.1	2	5	112	0.01	29.900 
20:55	45.7	45.7	45.7	94	44.1	2	7	112	0.01	29.900 
21:00	45.7	45.7	45.7	94	44.1	3	12	90	0.01	29.885 
21:05	45.7	45.7	45.7	94	44.1	1	4	135	0.01	29.885 
21:10	45.7	43.9	45.7	94	44.1	4	11	112	0.00	29.885 
21:15	45.7	43.2	45.7	95	44.4	5	10	90	0.00	29.889 
21:20	45.7	43.2	45.7	95	44.4	5	10	90	0.00	29.889 
21:25	45.7	43.9	45.7	95	44.4	4	9	90	0.00	29.889 
21:30	45.7	43.9	45.7	95	44.4	4	7	90	0.01	29.883 
21:35	45.7	43.2	45.7	95	44.4	5	12	90	0.01	29.883 
21:40	45.5	42.9	45.5	95	44.2	5	12	112	0.01	29.883 
21:45	45.4	41.6	45.4	95	44.1	7	16	90	0.00	29.837 
21:50	45.4	40.3	45.4	95	44.1	10	17	112	0.01	29.837 
21:55	45.2	41.4	45.2	95	43.9	7	14	90	0.01	29.837 
22:00	45.2	40.9	45.2	95	43.9	8	17	112	0.00	29.821 
22:05	45.2	42.0	45.2	95	43.9	6	14	112	0.01	29.821 
22:10	45.2	42.0	45.2	95	43.9	6	14	112	0.00	29.821 
22:15	45.2	42.0	45.2	95	43.9	6	15	90	0.00	29.834 
22:20	45.2	45.2	45.2	95	43.9	3	10	112	0.00	29.834 
22:25	45.2	45.2	45.2	95	43.9	3	7	90	0.00	29.834 
22:30	45.2	43.3	45.2	95	43.9	4	10	90	0.00	29.871 
22:35	45.2	45.2	45.2	95	43.9	2	5	90	0.01	29.871 
22:40	45.2	45.2	45.2	95	43.9	2	6	90	0.00	29.871 
22:45	45.4	45.4	45.4	95	44.1	2	10	90	0.00	29.889 
22:50	45.4	45.4	45.4	95	44.1	3	7	90	0.00	29.889 
22:55	45.4	43.6	45.4	95	44.1	4	7	90	0.00	29.889 
23:00	45.4	43.6	45.4	95	44.1	4	11	112	0.00	29.870 
23:05	45.5	45.5	45.5	95	44.2	3	9	112	0.01	29.870 
23:10	45.5	42.9	45.5	95	44.2	5	10	112	0.00	29.870 
23:15	45.1	40.8	45.1	95	43.8	8	18	112	0.01	29.825 
23:20	44.8	40.0	44.8	95	43.5	9	18	90	0.00	29.825 
23:25	44.8	40.9	44.8	95	43.5	7	17	90	0.01	29.825 
23:30	44.8	40.9	44.8	95	43.5	7	13	90	0.00	29.821 
23:35	44.8	41.5	44.8	95	43.5	6	12	112	0.00	29.821 
23:40	44.6	41.2	44.6	95	43.3	6	13	90	0.00	29.821 
23:45	44.6	41.2	44.6	95	43.3	6	11	90	0.00	29.819 
23:50	44.6	41.2	44.6	95	43.3	6	13	112	0.00	29.819 
23:55	44.6	41.9	44.6	95	43.3	5	14	112	0.00	29.819 

CoCoRaHS
IN-AL-39
A2 Web Hosting
Creative Commons License
GoDaddy
search engine by freefind advanced

loaded 2018-11-12 19:55:38 • last modified 2010-11-18 10:43:29
Privacy PolicyDisclaimer
• wx.awcolley.com is powered by PmWiki v.2002016 •
• all content (unless otherwise noted) © 2018 A W Colley